Time;durP1;ratioP1;P1;durP2;ratioP2;P2;SDS_P1;SDS_P2;PMS_P1;PMS_P2;Temp;Humidity;BMP_temperature;BMP_pressure;BME280_temperature;BME280_humidity;BME280_pressure;Samples;Min_cycle;Max_cycle;Signal;HPM_P1;HPM_P2
2023/08/15 00:01:25;;;;;;;2.33;1.20;;;21.90;99.90;;;21.88;63.83;100928.78;4910079;28;101168;-43
2023/08/15 00:03:51;;;;;;;1.97;1.47;;;21.90;99.90;;;21.85;63.77;100915.59;4870801;28;101553;-48
2023/08/15 00:06:20;;;;;;;1.90;1.50;;;21.90;99.90;;;21.82;64.06;100905.06;4902111;28;107334;-43
2023/08/15 00:08:48;;;;;;;2.00;1.40;;;21.90;99.90;;;21.80;64.17;100901.66;4909843;28;97870;-43
2023/08/15 00:11:14;;;;;;;1.53;1.10;;;21.90;99.90;;;21.79;64.19;100895.44;4910752;28;98562;-42
2023/08/15 00:13:39;;;;;;;1.37;1.10;;;21.90;99.90;;;21.85;63.94;100899.50;4915734;28;98864;-45
2023/08/15 00:16:05;;;;;;;1.53;1.20;;;21.90;99.90;;;21.85;63.98;100889.59;4909754;28;97114;-49
2023/08/15 00:18:31;;;;;;;2.30;1.43;;;21.90;99.90;;;21.89;63.83;100895.59;4889369;28;98085;-48
2023/08/15 00:20:57;;;;;;;1.17;1.07;;;21.90;99.90;;;21.87;63.90;100884.13;4910916;28;97195;-46
2023/08/15 00:23:23;;;;;;;4.10;1.50;;;21.90;99.90;;;21.88;63.87;100883.13;4914165;28;97916;-45
2023/08/15 00:25:48;;;;;;;1.70;1.50;;;21.90;99.90;;;21.91;63.80;100881.06;4914112;28;97393;-44
2023/08/15 00:28:14;;;;;;;2.27;1.77;;;22.00;99.90;;;21.97;63.76;100893.13;4910197;28;97402;-48
2023/08/15 00:30:41;;;;;;;1.90;1.43;;;22.00;99.90;;;21.99;63.35;100877.78;4930095;28;107408;-46
2023/08/15 00:33:07;;;;;;;2.47;2.00;;;22.00;99.90;;;22.00;63.44;100871.41;4929553;28;97997;-45
2023/08/15 00:35:32;;;;;;;1.73;1.60;;;22.00;99.90;;;22.02;63.63;100874.84;4923879;28;97004;-43
2023/08/15 00:37:58;;;;;;;3.07;2.00;;;22.10;99.90;;;22.07;65.64;100883.41;4933590;28;100485;-46
2023/08/15 00:40:24;;;;;;;4.00;2.03;;;22.10;99.90;;;22.07;63.14;100886.09;5099343;22;102340;-70
2023/08/15 00:42:50;;;;;;;3.60;2.10;;;22.10;99.90;;;22.07;63.27;100887.91;4896894;28;97531;-69
2023/08/15 00:45:16;;;;;;;2.97;2.43;;;22.10;99.90;;;22.08;63.52;100893.16;4879219;28;97693;-69
2023/08/15 00:47:42;;;;;;;1.70;1.40;;;22.10;99.90;;;22.04;63.30;100894.34;4864089;28;110217;-69
2023/08/15 00:50:09;;;;;;;1.73;1.40;;;22.10;99.90;;;22.01;63.52;100897.28;4881574;28;98531;-69
2023/08/15 00:52:35;;;;;;;2.10;1.50;;;22.10;99.90;;;22.00;63.30;100882.16;4885081;28;97538;-71
2023/08/15 00:55:02;;;;;;;1.67;1.20;;;22.10;99.90;;;21.99;63.36;100877.78;4868460;28;97591;-70
2023/08/15 00:57:29;;;;;;;1.80;1.37;;;22.00;99.90;;;21.98;63.30;100879.56;4879854;28;102923;-69
2023/08/15 00:59:56;;;;;;;1.90;1.40;;;22.00;99.90;;;21.98;63.16;100873.34;4877625;28;110591;-69
2023/08/15 01:02:21;;;;;;;1.87;1.70;;;22.00;99.90;;;22.00;63.18;100870.56;4880752;28;97767;-71
2023/08/15 01:04:49;;;;;;;2.30;1.93;;;22.00;99.90;;;22.00;63.14;100860.69;4880612;28;97222;-69
2023/08/15 01:07:17;;;;;;;3.17;1.95;;;22.00;99.90;;;22.01;63.07;100857.00;4886313;28;99045;-70
2023/08/15 01:09:44;;;;;;;1.33;1.20;;;22.00;99.90;;;22.01;63.00;100848.09;4880898;28;97272;-69
2023/08/15 01:12:32;;;;;;;1.20;1.10;;;22.10;99.90;;;21.93;63.42;100837.97;4896079;28;102603;-70
2023/08/15 01:15:04;;;;;;;1.47;1.20;;;22.00;99.90;;;21.90;63.41;100832.84;4878361;28;97209;-69
2023/08/15 01:18:10;;;;;;;1.73;1.53;;;21.90;99.90;;;21.97;63.29;100834.03;4892309;28;100245;-69
2023/08/15 01:20:37;;;;;;;1.43;1.23;;;22.00;99.90;;;21.95;63.38;100836.84;4876837;28;101299;-69
2023/08/15 01:23:08;;;;;;;2.83;1.80;;;21.90;99.90;;;21.98;63.30;100830.38;4875338;28;96897;-69
2023/08/15 01:25:41;;;;;;;3.23;1.80;;;22.00;99.90;;;22.01;63.13;100829.31;4864462;28;97602;-69
2023/08/15 01:28:14;;;;;;;2.70;1.90;;;22.00;99.90;;;22.01;63.15;100824.78;4879763;28;99302;-68
2023/08/15 01:30:59;;;;;;;2.17;1.10;;;22.00;99.90;;;22.00;63.06;100823.06;4880140;28;97477;-69
2023/08/15 01:33:38;;;;;;;2.43;1.90;;;22.00;99.90;;;22.08;68.62;100831.38;4864202;28;97856;-68
2023/08/15 01:36:21;;;;;;;2.40;2.03;;;22.10;99.90;;;22.13;69.69;100850.69;4885177;28;97932;-70
2023/08/15 01:38:56;;;;;;;4.17;2.10;;;22.20;99.90;;;22.10;63.81;100853.59;4888577;28;97236;-69
2023/08/15 01:41:24;;;;;;;4.57;1.90;;;22.10;99.90;;;22.08;63.85;100852.88;4891519;28;99895;-70
2023/08/15 01:43:51;;;;;;;2.93;2.10;;;22.10;99.90;;;22.08;63.45;100852.88;4887857;28;97252;-69
2023/08/15 01:46:18;;;;;;;1.93;1.73;;;22.10;99.90;;;22.07;63.39;100863.75;4877413;28;100738;-69
2023/08/15 01:48:44;;;;;;;3.90;1.97;;;22.10;99.90;;;22.06;63.46;100865.56;4879662;28;99678;-69
2023/08/15 01:51:10;;;;;;;3.53;2.07;;;22.00;99.90;;;22.06;63.27;100876.31;4877938;28;97586;-69
2023/08/15 01:53:38;;;;;;;1.60;1.50;;;22.00;99.90;;;22.04;63.29;100867.50;4865209;28;97339;-69
2023/08/15 01:56:05;;;;;;;3.45;2.03;;;22.00;99.90;;;22.04;63.18;100864.81;4875407;28;97386;-70
2023/08/15 01:58:30;;;;;;;2.37;1.60;;;22.00;99.90;;;22.08;66.41;100863.63;4861521;28;98969;-69
2023/08/15 02:00:58;;;;;;;2.60;1.97;;;22.10;99.90;;;22.07;63.38;100867.28;4889233;28;97204;-68
2023/08/15 02:03:25;;;;;;;2.80;2.30;;;22.10;99.90;;;22.09;63.70;100878.75;4894510;28;97724;-69
2023/08/15 02:05:51;;;;;;;1.77;1.67;;;22.10;99.90;;;22.09;64.17;100886.81;4893283;28;97258;-69
2023/08/15 02:08:16;;;;;;;2.27;1.80;;;22.10;99.90;;;22.09;63.29;100891.31;4891519;28;99361;-69
2023/08/15 02:10:42;;;;;;;2.60;2.13;;;22.10;99.90;;;22.09;63.41;100886.81;4891476;28;99045;-70
2023/08/15 02:13:08;;;;;;;2.20;1.60;;;22.10;99.90;;;22.10;63.78;100885.81;4895462;28;97198;-69
2023/08/15 02:15:34;;;;;;;2.53;2.13;;;22.10;99.90;;;22.10;63.38;100883.16;4862537;28;97635;-69
2023/08/15 02:18:00;;;;;;;2.63;2.40;;;22.10;99.90;;;22.15;68.12;100889.03;4887258;28;97431;-69
2023/08/15 02:20:25;;;;;;;2.00;1.80;;;22.20;99.90;;;22.10;63.18;100876.91;4890204;28;99698;-68
2023/08/15 02:22:52;;;;;;;2.43;1.90;;;22.10;99.90;;;22.11;63.50;100879.47;4875316;28;97770;-69
2023/08/15 02:25:17;;;;;;;1.90;1.50;;;22.10;99.90;;;22.10;63.45;100877.78;4893166;28;99728;-69
2023/08/15 02:27:43;;;;;;;3.10;1.93;;;22.10;99.90;;;22.13;66.90;100888.28;4895911;28;106671;-69
2023/08/15 02:30:09;;;;;;;3.13;1.93;;;22.10;99.90;;;22.13;63.94;100888.28;4891042;28;98897;-69
2023/08/15 02:32:35;;;;;;;3.53;2.33;;;22.20;99.90;;;22.19;72.71;100892.31;4879160;28;97301;-70
2023/08/15 02:35:01;;;;;;;3.53;1.90;;;22.20;99.90;;;22.18;69.07;100894.13;4896322;28;97380;-69
2023/08/15 02:37:27;;;;;;;3.27;1.87;;;22.20;99.90;;;22.16;64.21;100900.63;4894909;28;99023;-69
2023/08/15 02:39:53;;;;;;;2.28;1.98;;;22.20;99.90;;;22.13;63.52;100895.47;4881428;28;97412;-69
2023/08/15 02:42:19;;;;;;;2.40;2.03;;;22.20;99.90;;;22.13;63.93;100899.03;4898017;28;97484;-68
2023/08/15 02:44:44;;;;;;;2.33;1.70;;;22.10;99.90;;;22.10;63.63;100888.50;4876508;28;97701;-71
2023/08/15 02:47:10;;;;;;;5.53;1.77;;;22.10;99.90;;;22.17;72.52;100889.75;4863768;28;97797;-69
2023/08/15 02:49:36;;;;;;;2.30;1.97;;;22.20;99.90;;;22.17;70.00;100896.97;4895697;28;110215;-69
2023/08/15 02:52:02;;;;;;;3.13;1.80;;;22.20;99.90;;;22.14;64.12;100905.28;4882513;28;97181;-71
2023/08/15 02:54:28;;;;;;;2.70;2.30;;;22.20;99.90;;;22.14;63.99;100906.13;4893240;28;97380;-69
2023/08/15 02:56:53;;;;;;;4.95;1.77;;;22.20;99.90;;;22.10;63.73;100915.38;4897307;28;102959;-71
2023/08/15 02:59:19;;;;;;;2.20;1.93;;;22.10;99.90;;;22.11;63.73;100906.34;4892542;28;104243;-70
2023/08/15 03:01:47;;;;;;;1.87;1.67;;;22.10;99.90;;;22.08;63.36;100898.53;4897889;28;104827;-69
2023/08/15 03:04:13;;;;;;;2.17;1.63;;;22.10;99.90;;;22.03;63.46;100887.28;4894437;28;97400;-70
2023/08/15 03:06:39;;;;;;;2.07;1.83;;;22.10;99.90;;;22.02;63.83;100880.22;4875496;28;121425;-71
2023/08/15 03:09:05;;;;;;;3.67;2.42;;;22.00;99.90;;;22.11;71.12;100874.09;4877331;28;97708;-69
2023/08/15 03:11:30;;;;;;;5.07;2.63;;;22.10;99.90;;;22.20;77.60;100886.81;4884057;28;97321;-69
2023/08/15 03:13:58;;;;;;;3.83;2.60;;;22.20;99.90;;;22.24;79.19;100901.69;4894069;28;97478;-69
2023/08/15 03:16:24;;;;;;;2.10;1.90;;;22.30;99.90;;;22.17;64.81;100911.25;4897633;28;97832;-70
2023/08/15 03:18:50;;;;;;;2.38;1.98;;;22.20;99.90;;;22.15;64.56;100913.19;4865742;28;99594;-69
2023/08/15 03:21:16;;;;;;;2.65;1.88;;;22.20;99.90;;;22.11;64.14;100922.47;4895312;28;97549;-69
2023/08/15 03:23:42;;;;;;;2.77;1.53;;;22.10;99.90;;;22.06;64.42;100921.97;4879975;28;97169;-71
2023/08/15 03:26:07;;;;;;;2.72;1.77;;;22.10;99.90;;;22.07;63.94;100921.00;4902380;28;100503;-71
2023/08/15 03:28:34;;;;;;;1.37;1.13;;;22.10;99.90;;;21.98;64.05;100927.06;4895159;28;99394;-74
2023/08/15 03:31:08;;;;;;;1.30;1.20;;;22.00;99.90;;;21.93;64.20;100927.44;4888492;28;97517;-69
2023/08/15 03:33:35;;;;;;;3.33;2.08;;;22.00;99.90;;;21.94;63.97;100930.97;4891808;28;97642;-69
2023/08/15 03:36:01;;;;;;;2.60;2.13;;;21.90;99.90;;;21.97;63.94;100922.66;4880800;28;97561;-69
2023/08/15 03:38:27;;;;;;;1.40;1.30;;;22.00;99.90;;;21.96;63.68;100907.53;4894828;28;97715;-69
2023/08/15 03:41:04;;;;;;;1.67;1.57;;;22.00;99.90;;;21.88;64.14;100896.56;4875717;28;99475;-70
2023/08/15 03:43:31;;;;;;;0.87;0.67;;;21.90;99.90;;;21.83;63.99;100901.41;4878906;28;97300;-69
2023/08/15 03:45:58;;;;;;;1.00;1.00;;;21.90;99.90;;;21.90;64.18;100918.78;4861803;28;97216;-69
2023/08/15 03:48:24;;;;;;;2.40;1.30;;;21.90;99.90;;;21.75;64.68;100914.59;4879329;28;98043;-70
2023/08/15 03:50:55;;;;;;;2.27;1.53;;;21.90;99.90;;;21.70;64.82;100906.94;4861693;28;97639;-70
2023/08/15 03:53:21;;;;;;;1.48;1.30;;;21.80;99.90;;;21.65;65.09;100903.72;4874298;28;97062;-69
2023/08/15 03:55:51;;;;;;;2.67;1.63;;;21.80;99.90;;;21.62;65.31;100895.91;4894573;28;97266;-69
2023/08/15 03:58:18;;;;;;;2.10;1.43;;;21.80;99.90;;;21.64;65.35;100892.13;4877868;28;99106;-69
2023/08/15 04:00:46;;;;;;;1.93;1.40;;;21.80;99.90;;;21.63;65.44;100878.84;4896542;28;96807;-71
2023/08/15 04:03:12;;;;;;;2.10;1.33;;;21.70;99.90;;;21.64;65.57;100859.91;4878602;28;97630;-69
2023/08/15 04:05:38;;;;;;;4.53;2.90;;;21.80;99.90;;;21.77;72.97;100883.13;4882760;28;102002;-70
2023/08/15 04:08:04;;;;;;;3.63;2.80;;;21.80;99.90;;;21.91;75.32;100893.63;4895293;28;121101;-70
2023/08/15 04:10:30;;;;;;;5.97;2.80;;;21.90;99.90;;;22.05;82.46;100920.28;4896293;28;97678;-69
2023/08/15 04:12:56;;;;;;;5.97;3.60;;;22.10;99.90;;;22.14;85.28;100932.97;4879847;28;108503;-70
2023/08/15 04:15:22;;;;;;;2.43;2.10;;;22.20;99.90;;;22.06;66.30;100938.09;4891662;28;122565;-69
2023/08/15 04:17:48;;;;;;;3.23;2.93;;;22.10;99.90;;;22.10;77.53;100950.31;4878759;28;97725;-70
2023/08/15 04:20:14;;;;;;;4.33;3.00;;;22.10;99.90;;;22.07;67.55;100963.97;4893484;28;97776;-69
2023/08/15 04:22:40;;;;;;;4.03;2.47;;;22.10;99.90;;;22.03;65.92;100962.50;4894618;28;97340;-70
2023/08/15 04:25:17;;;;;;;2.78;1.83;;;22.10;99.90;;;22.00;66.09;100976.16;4897557;28;98851;-69
2023/08/15 04:27:43;;;;;;;4.03;2.97;;;22.00;99.90;;;21.93;66.45;100974.91;4873508;28;98008;-68
2023/08/15 04:30:09;;;;;;;2.70;2.50;;;21.90;99.90;;;21.96;66.79;100986.28;4896281;28;97226;-69
2023/08/15 04:32:35;;;;;;;3.67;2.87;;;21.90;99.90;;;22.00;68.45;101003.03;4884152;28;97571;-69
2023/08/15 04:35:02;;;;;;;8.70;3.07;;;22.00;99.90;;;22.07;71.51;101006.97;4900220;28;97206;-71
2023/08/15 04:37:27;;;;;;;5.67;3.07;;;22.10;99.90;;;22.11;69.68;101013.78;4898409;28;100042;-70
2023/08/15 04:39:53;;;;;;;3.13;2.80;;;22.10;99.90;;;22.17;80.85;101018.69;4897969;28;98891;-69
2023/08/15 04:42:20;;;;;;;2.93;2.20;;;22.20;99.90;;;22.10;66.44;101012.09;4879903;28;97364;-69
2023/08/15 04:44:46;;;;;;;4.05;3.25;;;22.20;99.90;;;22.10;72.62;101017.44;4896072;28;97224;-69
2023/08/15 04:47:12;;;;;;;6.40;2.70;;;22.10;99.90;;;22.12;76.44;101020.03;4895318;28;97649;-69
2023/08/15 04:49:38;;;;;;;4.67;3.13;;;22.10;99.90;;;22.12;67.44;101036.13;4879535;28;97548;-70
2023/08/15 04:52:05;;;;;;;6.73;2.83;;;22.10;99.90;;;22.14;75.88;101040.44;4899397;28;97363;-70
2023/08/15 04:54:30;;;;;;;3.87;2.67;;;22.20;99.90;;;22.10;66.73;101038.09;4884143;28;98641;-69
2023/08/15 04:56:56;;;;;;;4.90;2.35;;;22.10;99.90;;;22.12;69.89;101042.38;4895807;28;106491;-69
2023/08/15 04:59:22;;;;;;;2.00;1.80;;;22.10;99.90;;;22.05;65.83;101035.78;4897493;28;97501;-69
2023/08/15 05:01:48;;;;;;;2.87;1.77;;;22.10;99.90;;;21.96;65.38;101014.97;4897963;28;99902;-69
2023/08/15 05:04:14;;;;;;;2.27;1.37;;;22.00;99.90;;;21.86;65.40;101016.66;4895653;28;97885;-69
2023/08/15 05:06:39;;;;;;;1.80;1.60;;;21.90;99.90;;;21.86;65.44;101011.28;4899157;28;97512;-69
2023/08/15 05:09:05;;;;;;;2.17;1.63;;;21.90;99.90;;;21.83;65.61;101004.31;4880969;28;96682;-70
2023/08/15 05:11:31;;;;;;;1.80;1.47;;;21.90;99.90;;;21.67;65.33;100966.19;4888289;28;100217;-70
2023/08/15 05:14:00;;;;;;;2.03;1.60;;;21.80;99.90;;;21.66;66.34;100967.16;4896553;28;104723;-70
2023/08/15 05:16:25;;;;;;;2.13;1.50;;;21.80;99.90;;;21.59;66.31;100958.75;4875863;28;97628;-69
2023/08/15 05:18:51;;;;;;;4.77;1.90;;;21.70;99.90;;;21.64;67.57;100983.41;4869244;28;99190;-69
2023/08/15 05:21:17;;;;;;;4.27;2.60;;;21.70;99.90;;;21.87;78.07;101011.19;4896440;28;100113;-68
2023/08/15 05:23:43;;;;;;;3.83;2.73;;;21.90;99.90;;;21.94;71.98;101011.53;4880183;28;99587;-69
2023/08/15 05:26:09;;;;;;;2.63;1.63;;;22.00;99.90;;;21.83;67.31;100998.06;4880217;28;97373;-69
2023/08/15 05:28:35;;;;;;;3.17;2.13;;;21.90;99.90;;;21.92;71.54;101008.13;4879793;28;110722;-70
2023/08/15 05:31:00;;;;;;;4.83;3.00;;;21.90;99.90;;;22.04;78.09;101017.91;4899303;28;97108;-71
2023/08/15 05:33:26;;;;;;;4.23;3.00;;;22.00;99.90;;;22.10;80.11;101028.19;4881722;28;97253;-69
2023/08/15 05:35:52;;;;;;;4.80;2.17;;;22.10;99.90;;;22.09;75.12;101026.50;4895031;28;101927;-70
2023/08/15 05:38:18;;;;;;;6.97;2.80;;;22.20;99.90;;;22.16;84.06;101027.75;4896910;28;105526;-68
2023/08/15 05:40:44;;;;;;;5.27;2.90;;;22.20;99.90;;;22.14;79.54;101045.81;4895678;28;97852;-70
2023/08/15 05:43:09;;;;;;;7.50;2.80;;;22.20;99.90;;;22.14;74.45;101059.25;4881499;28;97526;-70
2023/08/15 05:45:35;;;;;;;5.60;2.87;;;22.20;99.90;;;22.18;82.94;101060.72;4895479;28;97235;-68
2023/08/15 05:48:01;;;;;;;4.00;2.53;;;22.20;99.90;;;22.11;68.71;101062.16;4901396;28;99033;-69
2023/08/15 05:50:27;;;;;;;4.40;2.00;;;22.10;99.90;;;22.08;69.27;101061.53;4881093;28;97556;-69
2023/08/15 05:52:52;;;;;;;5.67;2.73;;;22.10;99.90;;;22.15;81.28;101071.69;4898167;28;100126;-70
2023/08/15 05:55:18;;;;;;;3.80;2.03;;;22.10;99.90;;;22.10;75.59;101071.19;4897131;28;97461;-68
2023/08/15 05:57:44;;;;;;;3.88;2.50;;;22.10;99.90;;;22.06;74.02;101058.97;4897150;28;97372;-69
2023/08/15 06:00:11;;;;;;;2.77;2.00;;;22.00;99.90;;;22.01;70.20;101060.28;4896822;28;97528;-71
2023/08/15 06:02:38;;;;;;;1.73;1.40;;;22.00;99.90;;;22.06;74.09;101075.09;4888713;28;97748;-70
2023/08/15 06:05:05;;;;;;;2.47;1.70;;;22.10;99.90;;;22.04;70.35;101077.00;4899360;28;97217;-71
2023/08/15 06:07:31;;;;;;;1.83;1.38;;;22.00;99.90;;;22.09;79.85;101069.47;4878521;28;97485;-69
2023/08/15 06:09:56;;;;;;;2.00;1.40;;;22.10;99.90;;;22.10;83.58;101081.94;4864532;28;97302;-70
2023/08/15 06:12:22;;;;;;;2.80;1.93;;;22.10;99.90;;;22.09;79.47;101085.59;4896188;28;115307;-69
2023/08/15 06:14:48;;;;;;;2.53;1.93;;;22.10;99.90;;;22.13;84.07;101087.09;4892124;28;98285;-69
2023/08/15 06:17:14;;;;;;;4.83;2.07;;;22.10;99.90;;;22.09;75.69;101077.53;4897502;28;97711;-69
2023/08/15 06:19:39;;;;;;;4.03;2.13;;;22.10;99.90;;;22.10;80.07;101073.00;4895509;28;97461;-69
2023/08/15 06:22:05;;;;;;;4.13;2.07;;;22.10;99.90;;;22.12;84.30;101088.03;4894741;28;97469;-69
2023/08/15 06:24:31;;;;;;;2.40;2.10;;;22.10;99.90;;;22.07;70.83;101092.91;4898157;28;96767;-70
2023/08/15 06:26:57;;;;;;;4.93;2.43;;;22.10;99.90;;;22.08;73.11;101083.03;4895059;28;96888;-69
2023/08/15 06:29:25;;;;;;;2.47;1.63;;;22.10;99.90;;;22.12;85.65;101090.72;4895301;28;97626;-69
2023/08/15 06:31:53;;;;;;;2.93;2.00;;;22.10;99.90;;;22.13;87.16;101076.34;4893711;28;97308;-69
2023/08/15 06:34:18;;;;;;;5.13;1.63;;;22.10;99.90;;;22.13;87.98;101084.41;4870434;28;98475;-69
2023/08/15 06:36:45;;;;;;;2.70;1.93;;;22.10;99.90;;;22.13;86.13;101087.09;4884705;28;97432;-69
2023/08/15 06:41:48;;;;;;;3.73;1.50;;;22.10;99.90;;;22.12;84.75;101096.09;5256531;23;125356;-46
2023/08/15 06:44:14;;;;;;;3.90;2.23;;;22.10;99.90;;;22.13;86.23;101100.53;4942745;28;98915;-42
2023/08/15 06:46:39;;;;;;;2.53;1.60;;;22.10;99.90;;;22.12;87.20;101100.59;4944926;28;97014;-43
2023/08/15 06:49:06;;;;;;;3.97;1.80;;;22.10;99.90;;;22.06;73.35;101101.09;4948246;28;97402;-45
2023/08/15 06:51:32;;;;;;;3.90;2.10;;;22.10;99.90;;;22.12;85.10;101101.47;4949888;28;97296;-47
2023/08/15 06:53:57;;;;;;;2.80;2.00;;;22.10;99.90;;;22.11;84.54;101105.13;4953311;28;97471;-45
2023/08/15 06:56:23;;;;;;;2.00;1.63;;;22.10;99.90;;;22.11;85.47;101104.28;4949437;28;97383;-43
2023/08/15 06:58:49;;;;;;;2.40;1.80;;;22.10;99.90;;;22.06;76.04;101096.56;4936273;28;98883;-47
2023/08/15 07:01:15;;;;;;;4.50;1.50;;;22.10;99.90;;;22.04;69.78;101089.59;4951237;28;118073;-45
2023/08/15 07:03:40;;;;;;;1.93;1.40;;;22.00;99.90;;;22.02;70.46;101100.44;4953420;28;96688;-44
2023/08/15 07:06:06;;;;;;;3.33;1.70;;;22.00;99.90;;;22.03;74.87;101099.47;4949242;28;102110;-44
2023/08/15 07:08:32;;;;;;;4.13;1.40;;;22.10;99.90;;;22.05;78.91;101104.72;4946839;28;103008;-43
2023/08/15 07:11:00;;;;;;;1.60;1.40;;;22.00;99.90;;;22.06;77.19;101112.69;4944071;28;112445;-44
2023/08/15 07:13:25;;;;;;;2.10;1.03;;;22.00;99.90;;;22.03;71.11;101102.16;4939946;28;102496;-46
2023/08/15 07:15:57;;;;;;;4.27;1.57;;;22.00;99.90;;;22.07;80.95;101114.41;4949449;28;102603;-46
2023/08/15 07:18:24;;;;;;;3.17;1.30;;;22.10;99.90;;;22.01;69.33;101109.47;4945951;28;97243;-47
2023/08/15 07:20:51;;;;;;;2.27;1.50;;;22.00;99.90;;;22.07;80.21;101119.78;4925386;28;98227;-44
2023/08/15 07:23:18;;;;;;;1.57;1.40;;;22.00;99.90;;;22.07;75.99;101109.03;4944922;28;97215;-46
2023/08/15 07:25:44;;;;;;;3.53;1.90;;;22.10;99.90;;;22.10;79.14;101107.94;4925676;28;98282;-44
2023/08/15 07:28:10;;;;;;;2.43;1.73;;;22.10;99.90;;;22.09;78.20;101112.44;4942012;28;97242;-45
2023/08/15 07:30:36;;;;;;;2.53;1.13;;;22.10;99.90;;;22.10;77.15;101103.41;4937959;28;97387;-44
2023/08/15 07:33:05;;;;;;;1.90;1.50;;;22.10;99.90;;;22.11;77.46;101110.50;4941417;28;98689;-45
2023/08/15 07:35:31;;;;;;;2.07;1.20;;;22.10;99.90;;;22.12;77.90;101111.34;4941211;28;97164;-43
2023/08/15 07:37:57;;;;;;;4.07;1.60;;;22.10;99.90;;;22.11;73.59;101110.50;4940961;28;99104;-46
2023/08/15 07:40:23;;;;;;;1.80;1.30;;;22.10;99.90;;;22.12;75.65;101122.97;4936183;28;97553;-44
2023/08/15 07:42:49;;;;;;;1.83;1.20;;;22.10;99.90;;;22.16;81.56;101128.97;4942537;28;117183;-45
2023/08/15 07:45:19;;;;;;;3.33;1.60;;;22.20;99.90;;;22.14;77.13;101118.34;4946392;28;97152;-47
2023/08/15 07:47:48;;;;;;;1.80;1.03;;;22.20;99.90;;;22.17;82.87;101126.16;4949510;28;97494;-44
2023/08/15 07:50:18;;;;;;;2.08;1.25;;;22.20;99.90;;;22.17;79.68;101126.16;4938752;28;97568;-47
2023/08/15 07:52:45;;;;;;;1.53;1.37;;;22.20;99.90;;;22.15;75.42;101133.50;4947563;28;98320;-44
2023/08/15 07:55:11;;;;;;;1.43;1.20;;;22.20;99.90;;;22.17;77.92;101144.13;4948734;28;97611;-44
2023/08/15 07:57:37;;;;;;;1.57;1.37;;;22.20;99.90;;;22.19;81.84;101143.03;4945159;28;97326;-45
2023/08/15 08:00:04;;;;;;;1.97;1.83;;;22.20;99.90;;;22.15;71.63;101148.75;4947284;28;97166;-43
2023/08/15 08:02:30;;;;;;;1.50;1.40;;;22.20;99.90;;;22.17;78.43;101154.88;4946510;28;103503;-44
2023/08/15 08:04:56;;;;;;;3.90;1.80;;;22.20;99.90;;;22.15;76.11;101149.63;4939057;28;97374;-45
2023/08/15 08:07:22;;;;;;;4.10;2.30;;;22.10;99.90;;;22.17;80.73;101152.19;4950824;28;96849;-45
2023/08/15 08:09:47;;;;;;;3.37;2.40;;;22.20;99.90;;;22.14;71.25;101149.72;4947923;28;97130;-44
2023/08/15 08:12:13;;;;;;;3.90;2.40;;;22.20;99.90;;;22.15;74.52;101154.13;4940485;28;97297;-43
2023/08/15 08:14:39;;;;;;;3.90;2.80;;;22.20;99.90;;;22.13;73.83;101154.25;4944721;28;113136;-43
2023/08/15 08:17:07;;;;;;;5.57;3.33;;;22.10;99.90;;;22.18;81.78;101160.13;4950752;28;96821;-45
2023/08/15 08:19:33;;;;;;;5.20;2.70;;;22.20;99.90;;;22.19;80.97;101161.81;4945055;28;97258;-44
2023/08/15 08:21:58;;;;;;;4.90;3.00;;;22.20;99.90;;;22.19;78.08;101160.97;4949540;28;100984;-46
2023/08/15 08:24:24;;;;;;;6.00;3.08;;;22.20;99.90;;;22.21;82.20;101164.41;4941845;28;99745;-46
2023/08/15 08:26:50;;;;;;;6.07;3.23;;;22.20;99.90;;;22.20;79.67;101168.06;4941765;28;106730;-44
2023/08/15 08:29:16;;;;;;;3.73;3.13;;;22.20;99.90;;;22.17;72.90;101158.41;4941266;28;115098;-43
2023/08/15 08:31:42;;;;;;;4.13;2.73;;;22.20;99.90;;;22.14;70.83;101164.03;4948370;28;114055;-43
2023/08/15 08:34:13;;;;;;;7.13;3.37;;;22.20;99.90;;;22.19;80.62;101161.81;4943440;28;97251;-45
2023/08/15 08:36:43;;;;;;;5.60;3.03;;;22.20;99.90;;;22.20;80.67;101163.53;4943765;28;96593;-43
2023/08/15 08:39:11;;;;;;;5.03;3.30;;;22.20;99.90;;;22.24;83.73;101164.16;4949352;28;97555;-45
2023/08/15 08:41:38;;;;;;;4.50;3.07;;;22.20;99.90;;;22.23;81.35;101173.19;4927642;28;97098;-44
2023/08/15 08:44:05;;;;;;;3.70;3.15;;;22.20;99.90;;;22.16;79.45;101177.34;4943757;28;97508;-44
2023/08/15 08:46:30;;;;;;;4.18;3.25;;;22.10;99.90;;;22.21;81.94;101176.00;4943832;28;96796;-44
2023/08/15 08:49:00;;;;;;;7.53;3.13;;;22.20;99.90;;;22.21;77.25;101173.31;4939216;28;97324;-47
2023/08/15 08:51:27;;;;;;;4.40;2.90;;;22.20;99.90;;;22.20;73.38;101185.03;4944860;28;97733;-43
2023/08/15 08:53:54;;;;;;;3.70;2.70;;;22.20;99.90;;;22.24;79.78;101175.75;4925509;28;97581;-43
2023/08/15 08:56:25;;;;;;;6.43;3.87;;;22.20;99.90;;;22.23;78.99;101181.25;4946468;28;97286;-45
2023/08/15 08:59:05;;;;;;;7.30;3.43;;;22.30;99.90;;;22.23;76.86;101178.56;4950303;28;97516;-45
2023/08/15 09:01:31;;;;;;;4.40;3.30;;;22.20;99.90;;;22.22;77.15;101188.47;4943471;28;101924;-43
2023/08/15 09:03:58;;;;;;;5.77;3.57;;;22.20;99.90;;;22.23;80.17;101179.41;4942218;28;99579;-45
2023/08/15 09:06:27;;;;;;;8.33;3.73;;;22.20;99.90;;;22.24;78.99;101191.03;4941597;28;98002;-45
2023/08/15 09:08:54;;;;;;;4.35;2.88;;;22.20;99.90;;;22.24;79.58;101185.66;4944045;28;103380;-43
2023/08/15 09:11:23;;;;;;;4.18;3.08;;;22.30;99.90;;;22.25;80.20;101180.16;4942892;28;97618;-44
2023/08/15 09:13:50;;;;;;;4.47;3.20;;;22.30;99.90;;;22.23;75.88;101179.41;4945166;28;101420;-45
2023/08/15 09:16:16;;;;;;;4.40;3.03;;;22.30;99.90;;;22.24;75.89;101181.13;4948595;28;97516;-45
2023/08/15 09:18:43;;;;;;;4.07;3.10;;;22.30;99.90;;;22.26;79.70;101189.94;4940969;28;97399;-45
2023/08/15 09:21:12;;;;;;;5.97;3.47;;;22.30;99.90;;;22.28;78.53;101189.84;4944931;28;97612;-43
2023/08/15 09:23:41;;;;;;;4.85;2.67;;;22.30;99.90;;;22.29;78.12;101183.50;4952758;28;97769;-45
2023/08/15 09:26:14;;;;;;;4.38;3.22;;;22.30;99.90;;;22.31;79.93;101192.28;4944285;28;97614;-43
2023/08/15 09:28:45;;;;;;;9.20;3.40;;;22.40;99.90;;;22.33;78.70;101192.16;4951058;28;97408;-46
2023/08/15 09:31:11;;;;;;;4.65;3.28;;;22.40;99.90;;;22.29;71.74;101196.94;4943792;28;97325;-44
2023/08/15 09:33:41;;;;;;;7.85;2.95;;;22.30;99.90;;;22.33;77.42;101195.72;4946962;28;97347;-43
2023/08/15 09:36:08;;;;;;;5.03;2.97;;;22.40;99.90;;;22.35;76.26;101201.81;4944100;28;97577;-47
2023/08/15 09:38:38;;;;;;;6.68;3.13;;;22.40;99.90;;;22.38;76.01;101206.09;4943013;28;98203;-43
2023/08/15 09:41:05;;;;;;;3.88;2.40;;;22.40;99.90;;;22.39;73.35;101218.56;4940879;28;102472;-52
2023/08/15 09:43:32;;;;;;;5.35;2.95;;;22.40;99.90;;;22.37;70.84;101217.81;4941227;28;96809;-45
2023/08/15 09:45:59;;;;;;;7.03;2.83;;;22.40;99.90;;;22.35;70.02;101215.25;4936789;28;97417;-44
2023/08/15 09:48:29;;;;;;;3.25;2.20;;;22.40;99.90;;;22.39;72.16;101221.25;4948361;28;97213;-43
2023/08/15 09:50:56;;;;;;;5.82;2.40;;;22.50;99.90;;;22.40;71.75;101228.34;4944953;28;98733;-43
2023/08/15 09:53:23;;;;;;;4.18;2.00;;;22.40;99.90;;;22.43;71.43;101225.44;4944248;28;96992;-43
2023/08/15 09:55:50;;;;;;;6.60;2.00;;;22.50;99.90;;;22.42;69.53;101226.38;4941967;28;97390;-43
2023/08/15 09:58:16;;;;;;;3.53;2.13;;;22.40;99.90;;;22.43;71.98;101217.38;4952594;28;97254;-44
2023/08/15 10:00:43;;;;;;;5.05;2.28;;;22.40;99.90;;;22.44;68.61;101219.94;4944869;28;97693;-44
2023/08/15 10:03:29;;;;;;;3.50;1.85;;;22.50;99.90;;;22.50;69.45;101219.47;4938941;28;97379;-45
2023/08/15 10:05:57;;;;;;;3.88;2.17;;;22.50;99.90;;;22.51;69.92;101220.31;4954942;28;97582;-45
2023/08/15 10:08:24;;;;;;;3.97;1.83;;;22.60;99.90;;;22.53;68.59;101223.72;4946166;28;97636;-46
2023/08/15 10:10:51;;;;;;;2.75;1.85;;;22.60;99.90;;;22.55;67.08;101235.22;4941765;28;97626;-47
2023/08/15 10:13:22;;;;;;;3.50;1.77;;;22.60;99.90;;;22.59;67.28;101228.66;4929819;28;97074;-45